Hishimaru — JD3929 — position and weather

sailwx.info

Track history (hours):
 
Tides and Currents Weather Stations Pressure Air Temp Water Temp Dewpoint Dewpoint Depression Visibility Wind Speed Wind Dir Waves Ship Positions

Hishimaru

Last reported at 2017-Dec-11 17:00 UTC. Time now 2017-Dec-12 12:30 UTC.
Position N 34°00' E 134°52'.

Length 67 m; draft 4.5 m.

Type: Tanker. MMSI: 431007082.

Date/timePositionNaut miles runAvg speedWind from/ knotsBaromVisibWave heightAir tempDewpointWater temp
2017-Dec-11 17:00N 34°00' E 134°52'511.0
2017-Dec-11 16:31N 33°56' E 134°57'168 9.5
2017-Dec-10 22:48N 34°34' E 138°15'311.0
2017-Dec-10 22:30N 34°34' E 138°19'611.2
2017-Dec-10 21:58N 34°34' E 138°26'511.0
2017-Dec-10 21:28N 34°34' E 138°33'511.2
2017-Dec-10 20:59N 34°35' E 138°39'811.7
2017-Dec-10 20:19N 34°35' E 138°49'411.4
2017-Dec-10 19:58N 34°35' E 138°54'510.7
2017-Dec-10 19:30N 34°37' E 138°59'611.6
2017-Dec-10 18:59N 34°41' E 139°05'612.1
2017-Dec-10 18:30N 34°45' E 139°10'611.3
2017-Dec-10 18:00N 34°49' E 139°15'1210.7
2017-Dec-10 16:52N 34°51' E 139°30'411.5
2017-Dec-10 16:30N 34°51' E 139°35'810.9
2017-Dec-10 15:46N 34°51' E 139°45'310.7
2017-Dec-10 15:29N 34°52' E 139°48'810.8
2017-Dec-10 14:45N 34°53' E 139°58'3 9.9
2017-Dec-10 14:30N 34°55' E 140°00'5 9.9
2017-Dec-10 13:57N 34°58' E 140°06'  
2017-Dec-08 08:56N 34°58' E 140°07'1910.8
2017-Dec-08 07:13N 34°57' E 139°44'312.5
2017-Dec-08 06:59N 34°60' E 139°43'612.7
2017-Dec-08 06:30N 35°06' E 139°45'612.8
2017-Dec-08 06:00N 35°12' E 139°46'612.0
2017-Dec-08 05:31N 35°18' E 139°44'611.8
2017-Dec-08 05:01N 35°24' E 139°43'612.2
2017-Dec-08 04:30N 35°28' E 139°48'612.0
2017-Dec-08 04:00N 35°30' E 139°55'5 9.9
2017-Dec-08 03:30N 35°28' E 140°01'0 0.0
2017-Dec-08 03:00N 35°28' E 140°01'0 0.0
2017-Dec-08 02:29N 35°28' E 140°01'0 0.0
2017-Dec-08 02:00N 35°28' E 140°01'0 0.0
2017-Dec-08 01:26N 35°28' E 140°01'0 0.0
2017-Dec-08 00:59N 35°28' E 140°01'0 0.0
2017-Dec-08 00:29N 35°28' E 140°01'0 0.0
2017-Dec-08 00:00N 35°28' E 140°01'0 0.0
2017-Dec-07 23:30N 35°28' E 140°01'2 4.1
2017-Dec-07 23:00N 35°30' E 139°59'0 0.5
2017-Dec-07 22:30N 35°30' E 139°59'4 8.8
2017-Dec-07 22:00N 35°29' E 139°53'612.9
2017-Dec-07 21:30N 35°25' E 139°47'612.8
2017-Dec-07 21:01N 35°19' E 139°44'612.7
2017-Dec-07 20:31N 35°13' E 139°47'612.7
2017-Dec-07 20:00N 35°07' E 139°45'612.4
2017-Dec-07 19:30N 35°02' E 139°40'714.2
2017-Dec-07 18:59N 34°58' E 139°33'1915.2
2017-Dec-07 17:45N 34°47' E 139°15'1013.8
2017-Dec-07 17:00N 34°40' E 139°05'814.4
2017-Dec-07 16:28N 34°36' E 138°57'3114.4
2017-Dec-07 14:19N 34°34' E 138°19'714.1
2017-Dec-07 13:51N 34°33' E 138°12'6612.5
2017-Dec-07 08:34N 34°39' E 136°52'212.8
2017-Dec-07 08:25N 34°40' E 136°50'513.0
2017-Dec-07 08:00N 34°45' E 136°47'612.7
2017-Dec-07 07:30N 34°52' E 136°46'612.6
2017-Dec-07 07:00N 34°58' E 136°48'612.8
2017-Dec-07 06:31N 35°03' E 136°52'0 0.2
2017-Dec-07 06:01N 35°03' E 136°52'0 0.0
2017-Dec-07 05:30N 35°03' E 136°52'0 0.0
2017-Dec-07 05:01N 35°03' E 136°52'0 0.0
2017-Dec-07 04:30N 35°03' E 136°52'0 0.0
2017-Dec-07 04:00N 35°03' E 136°52'0 0.0
2017-Dec-07 03:31N 35°03' E 136°52'0 0.0
2017-Dec-07 03:01N 35°03' E 136°52'0 0.0
2017-Dec-07 02:31N 35°03' E 136°52'1 1.4
2017-Dec-07 02:01N 35°02' E 136°51'4 7.9
2017-Dec-07 01:30N 34°59' E 136°49'2 4.8
2017-Dec-07 01:01N 34°58' E 136°46'0 0.0
2017-Dec-07 00:30N 34°58' E 136°46'0 0.0
2017-Dec-07 00:01N 34°58' E 136°46'0 0.0
2017-Dec-06 23:31N 34°58' E 136°46'0 0.1
2017-Dec-06 23:00N 34°58' E 136°46'0 0.0
2017-Dec-06 22:31N 34°58' E 136°46'0 0.0
2017-Dec-06 22:00N 34°58' E 136°46'0 0.0
2017-Dec-06 21:31N 34°58' E 136°46'0 0.0
2017-Dec-06 21:01N 34°58' E 136°46'  
2017-Dec-03 23:31N 34°46' E 139°14'012.2
2017-Dec-03 23:30N 34°46' E 139°14'814.3
2017-Dec-03 22:58N 34°41' E 139°06'713.0
2017-Dec-03 22:25N 34°37' E 138°60'21111.3
2017-Dec-03 03:42N 34°06' E 134°47'313.6
2017-Dec-03 03:30N 34°08' E 134°45'813.7
2017-Dec-03 02:56N 34°14' E 134°39'614.0
2017-Dec-03 02:29N 34°17' E 134°33'92 5.9
2017-Dec-02 10:59N 33°59' E 132°44'714.6
2017-Dec-02 10:30N 33°54' E 132°38'1413.8
2017-Dec-02 09:30N 33°50' E 132°22'1513.4
2017-Dec-02 08:24N 33°46' E 132°05'712.8
2017-Dec-02 07:49N 33°45' E 131°56'412.5
2017-Dec-02 07:30N 33°46' E 131°51'612.3
2017-Dec-02 07:01N 33°47' E 131°44'612.5
2017-Dec-02 06:30N 33°48' E 131°37'612.5
2017-Dec-02 06:00N 33°50' E 131°29'612.6
2017-Dec-02 05:31N 33°51' E 131°22'713.1
2017-Dec-02 05:00N 33°52' E 131°14'713.3
2017-Dec-02 04:31N 33°56' E 131°07'713.5
2017-Dec-02 04:00N 33°59' E 131°00'713.1
2017-Dec-02 03:30N 33°54' E 130°54'4 8.8
2017-Dec-02 03:00N 33°54' E 130°49'3 6.3
2017-Dec-02 02:30N 33°52' E 130°45'0 0.0
2017-Dec-02 02:00N 33°52' E 130°45'0 0.0
2017-Dec-02 01:30N 33°52' E 130°45'0 0.0
2017-Dec-02 01:00N 33°52' E 130°45'0 0.0
2017-Dec-02 00:30N 33°52' E 130°45'0 0.0
2017-Dec-02 00:00N 33°52' E 130°45'0 0.4
2017-Dec-01 23:31N 33°53' E 130°45'5 9.2
2017-Dec-01 23:01N 33°56' E 130°50'4 7.6
2017-Dec-01 22:31N 33°58' E 130°53'0 0.1
2017-Dec-01 22:01N 33°58' E 130°53'0 0.0
2017-Dec-01 21:30N 33°58' E 130°53'0 0.0
2017-Dec-01 21:01N 33°58' E 130°53'0 0.0
2017-Dec-01 20:31N 33°58' E 130°53'0 0.0
2017-Dec-01 20:00N 33°58' E 130°53'0 0.1
2017-Dec-01 19:31N 33°58' E 130°53'0 0.0
2017-Dec-01 19:00N 33°58' E 130°53'0 0.0
2017-Dec-01 18:31N 33°58' E 130°53'0 0.0
2017-Dec-01 18:00N 33°58' E 130°53'0 0.0
2017-Dec-01 17:31N 33°58' E 130°53'0 0.0
2017-Dec-01 17:01N 33°58' E 130°53'  
Track history (hours):
 
Tides and Currents Weather Stations Pressure Air Temp Water Temp Dewpoint Dewpoint Depression Visibility Wind Speed Wind Dir Waves Ship Positions

Hishimaru

Last reported at 2017-Dec-11 17:00 UTC. Time now 2017-Dec-12 12:30 UTC.
Position N 34°00' E 134°52'.

Length 67 m; draft 4.5 m.

Type: Tanker. MMSI: 431007082.

Date/timePositionNaut miles runAvg speedWind from/ knotsBaromVisibWave heightAir tempDewpointWater temp
2017-Dec-11 17:00N 34°00' E 134°52'511.0
2017-Dec-11 16:31N 33°56' E 134°57'168 9.5
2017-Dec-10 22:48N 34°34' E 138°15'311.0
2017-Dec-10 22:30N 34°34' E 138°19'611.2
2017-Dec-10 21:58N 34°34' E 138°26'511.0
2017-Dec-10 21:28N 34°34' E 138°33'511.2
2017-Dec-10 20:59N 34°35' E 138°39'811.7
2017-Dec-10 20:19N 34°35' E 138°49'411.4
2017-Dec-10 19:58N 34°35' E 138°54'510.7
2017-Dec-10 19:30N 34°37' E 138°59'611.6
2017-Dec-10 18:59N 34°41' E 139°05'612.1
2017-Dec-10 18:30N 34°45' E 139°10'611.3
2017-Dec-10 18:00N 34°49' E 139°15'1210.7
2017-Dec-10 16:52N 34°51' E 139°30'411.5
2017-Dec-10 16:30N 34°51' E 139°35'810.9
2017-Dec-10 15:46N 34°51' E 139°45'310.7
2017-Dec-10 15:29N 34°52' E 139°48'810.8
2017-Dec-10 14:45N 34°53' E 139°58'3 9.9
2017-Dec-10 14:30N 34°55' E 140°00'5 9.9
2017-Dec-10 13:57N 34°58' E 140°06'  
2017-Dec-08 08:56N 34°58' E 140°07'1910.8
2017-Dec-08 07:13N 34°57' E 139°44'312.5
2017-Dec-08 06:59N 34°60' E 139°43'612.7
2017-Dec-08 06:30N 35°06' E 139°45'612.8
2017-Dec-08 06:00N 35°12' E 139°46'612.0
2017-Dec-08 05:31N 35°18' E 139°44'611.8
2017-Dec-08 05:01N 35°24' E 139°43'612.2
2017-Dec-08 04:30N 35°28' E 139°48'612.0
2017-Dec-08 04:00N 35°30' E 139°55'5 9.9
2017-Dec-08 03:30N 35°28' E 140°01'0 0.0
2017-Dec-08 03:00N 35°28' E 140°01'0 0.0
2017-Dec-08 02:29N 35°28' E 140°01'0 0.0
2017-Dec-08 02:00N 35°28' E 140°01'0 0.0
2017-Dec-08 01:26N 35°28' E 140°01'0 0.0
2017-Dec-08 00:59N 35°28' E 140°01'0 0.0
2017-Dec-08 00:29N 35°28' E 140°01'0 0.0
2017-Dec-08 00:00N 35°28' E 140°01'0 0.0
2017-Dec-07 23:30N 35°28' E 140°01'2 4.1
2017-Dec-07 23:00N 35°30' E 139°59'0 0.5
2017-Dec-07 22:30N 35°30' E 139°59'4 8.8
2017-Dec-07 22:00N 35°29' E 139°53'612.9
2017-Dec-07 21:30N 35°25' E 139°47'612.8
2017-Dec-07 21:01N 35°19' E 139°44'612.7
2017-Dec-07 20:31N 35°13' E 139°47'612.7
2017-Dec-07 20:00N 35°07' E 139°45'612.4
2017-Dec-07 19:30N 35°02' E 139°40'714.2
2017-Dec-07 18:59N 34°58' E 139°33'1915.2
2017-Dec-07 17:45N 34°47' E 139°15'1013.8
2017-Dec-07 17:00N 34°40' E 139°05'814.4
2017-Dec-07 16:28N 34°36' E 138°57'3114.4
2017-Dec-07 14:19N 34°34' E 138°19'714.1
2017-Dec-07 13:51N 34°33' E 138°12'6612.5
2017-Dec-07 08:34N 34°39' E 136°52'212.8
2017-Dec-07 08:25N 34°40' E 136°50'513.0
2017-Dec-07 08:00N 34°45' E 136°47'612.7
2017-Dec-07 07:30N 34°52' E 136°46'612.6
2017-Dec-07 07:00N 34°58' E 136°48'612.8
2017-Dec-07 06:31N 35°03' E 136°52'0 0.2
2017-Dec-07 06:01N 35°03' E 136°52'0 0.0
2017-Dec-07 05:30N 35°03' E 136°52'0 0.0
2017-Dec-07 05:01N 35°03' E 136°52'0 0.0
2017-Dec-07 04:30N 35°03' E 136°52'0 0.0
2017-Dec-07 04:00N 35°03' E 136°52'0 0.0
2017-Dec-07 03:31N 35°03' E 136°52'0 0.0
2017-Dec-07 03:01N 35°03' E 136°52'0 0.0
2017-Dec-07 02:31N 35°03' E 136°52'1 1.4
2017-Dec-07 02:01N 35°02' E 136°51'4 7.9
2017-Dec-07 01:30N 34°59' E 136°49'2 4.8
2017-Dec-07 01:01N 34°58' E 136°46'0 0.0
2017-Dec-07 00:30N 34°58' E 136°46'0 0.0
2017-Dec-07 00:01N 34°58' E 136°46'0 0.0
2017-Dec-06 23:31N 34°58' E 136°46'0 0.1
2017-Dec-06 23:00N 34°58' E 136°46'0 0.0
2017-Dec-06 22:31N 34°58' E 136°46'0 0.0
2017-Dec-06 22:00N 34°58' E 136°46'0 0.0
2017-Dec-06 21:31N 34°58' E 136°46'0 0.0
2017-Dec-06 21:01N 34°58' E 136°46'  
2017-Dec-03 23:31N 34°46' E 139°14'012.2
2017-Dec-03 23:30N 34°46' E 139°14'814.3
2017-Dec-03 22:58N 34°41' E 139°06'713.0
2017-Dec-03 22:25N 34°37' E 138°60'21111.3
2017-Dec-03 03:42N 34°06' E 134°47'313.6
2017-Dec-03 03:30N 34°08' E 134°45'813.7
2017-Dec-03 02:56N 34°14' E 134°39'614.0
2017-Dec-03 02:29N 34°17' E 134°33'92 5.9
2017-Dec-02 10:59N 33°59' E 132°44'714.6
2017-Dec-02 10:30N 33°54' E 132°38'1413.8
2017-Dec-02 09:30N 33°50' E 132°22'1513.4
2017-Dec-02 08:24N 33°46' E 132°05'712.8
2017-Dec-02 07:49N 33°45' E 131°56'412.5
2017-Dec-02 07:30N 33°46' E 131°51'612.3
2017-Dec-02 07:01N 33°47' E 131°44'612.5
2017-Dec-02 06:30N 33°48' E 131°37'612.5
2017-Dec-02 06:00N 33°50' E 131°29'612.6
2017-Dec-02 05:31N 33°51' E 131°22'713.1
2017-Dec-02 05:00N 33°52' E 131°14'713.3
2017-Dec-02 04:31N 33°56' E 131°07'713.5
2017-Dec-02 04:00N 33°59' E 131°00'713.1
2017-Dec-02 03:30N 33°54' E 130°54'4 8.8
2017-Dec-02 03:00N 33°54' E 130°49'3 6.3
2017-Dec-02 02:30N 33°52' E 130°45'0 0.0
2017-Dec-02 02:00N 33°52' E 130°45'0 0.0
2017-Dec-02 01:30N 33°52' E 130°45'0 0.0
2017-Dec-02 01:00N 33°52' E 130°45'0 0.0
2017-Dec-02 00:30N 33°52' E 130°45'0 0.0
2017-Dec-02 00:00N 33°52' E 130°45'0 0.4
2017-Dec-01 23:31N 33°53' E 130°45'5 9.2
2017-Dec-01 23:01N 33°56' E 130°50'4 7.6
2017-Dec-01 22:31N 33°58' E 130°53'0 0.1
2017-Dec-01 22:01N 33°58' E 130°53'0 0.0
2017-Dec-01 21:30N 33°58' E 130°53'0 0.0
2017-Dec-01 21:01N 33°58' E 130°53'0 0.0
2017-Dec-01 20:31N 33°58' E 130°53'0 0.0
2017-Dec-01 20:00N 33°58' E 130°53'0 0.1
2017-Dec-01 19:31N 33°58' E 130°53'0 0.0
2017-Dec-01 19:00N 33°58' E 130°53'0 0.0
2017-Dec-01 18:31N 33°58' E 130°53'0 0.0
2017-Dec-01 18:00N 33°58' E 130°53'0 0.0
2017-Dec-01 17:31N 33°58' E 130°53'0 0.0
2017-Dec-01 17:01N 33°58' E 130°53'  

Dump ship's entire track history